I19

Greene County-Lewis A Jackson Regional Airport

Dayton, Ohio, USA
METAR KI19 161935Z AUTO 24008KT 10SM CLR 29/21 A2994 RMK AO2 T02920213
Observed Flight Rules
Jul-16 @ 19:35 UTC (24 minutes ago) Visual Flight Rules
Wind Visibility Clouds
240° at 8 knots 10 miles
  • Clear skies
Temperatures Readings
Current 29°C / 84°F
Dewpoint 21°C / 70°F
Humidity 62%
Altimeter 29.94" Hg
Pressure 1014 hPa
Elevation 289
METAR KI19 161935Z AUTO 24008KT 10SM CLR 29/21 A2994 RMK AO2 T02920213
Observed Flight Rules
Jul-16 @ 19:35 UTC
(24 minutes ago)
VFR
Wind Visibility
240° at 8 knots 10 miles
Clouds
  • Clear skies
Temperature Dewpoint
29°C / 84°F 21°C / 70°F
Humidity Altimeter Pressure
62% 29.94" Hg 1014 hPa